sensor_id;sensor_type;location;lat;lon;timestamp;pressure;altitude;pressure_sealevel;temperature;humidity
41102;BME280;26845;50.190;19.178;2023-05-17T00:02:06;98263.20;;;12.57;89.12
41102;BME280;26845;50.190;19.178;2023-05-17T00:05:12;98259.60;;;12.55;89.29
41102;BME280;26845;50.190;19.178;2023-05-17T00:07:56;98258.98;;;12.50;89.25
41102;BME280;26845;50.190;19.178;2023-05-17T00:11:03;98258.20;;;12.47;89.39
41102;BME280;26845;50.190;19.178;2023-05-17T00:14:08;98259.15;;;12.47;89.46
41102;BME280;26845;50.190;19.178;2023-05-17T00:17:14;98261.56;;;12.45;89.46
41102;BME280;26845;50.190;19.178;2023-05-17T00:20:09;98271.98;;;12.44;89.43
41102;BME280;26845;50.190;19.178;2023-05-17T00:23:21;98271.84;;;12.43;89.51
41102;BME280;26845;50.190;19.178;2023-05-17T00:26:28;98278.48;;;12.40;89.59
41102;BME280;26845;50.190;19.178;2023-05-17T00:29:34;98280.91;;;12.39;89.60
41102;BME280;26845;50.190;19.178;2023-05-17T00:32:39;98276.92;;;12.38;89.73
41102;BME280;26845;50.190;19.178;2023-05-17T00:35:48;98264.96;;;12.40;89.88
41102;BME280;26845;50.190;19.178;2023-05-17T00:38:51;98261.96;;;12.41;89.97
41102;BME280;26845;50.190;19.178;2023-05-17T00:41:57;98267.92;;;12.36;90.05
41102;BME280;26845;50.190;19.178;2023-05-17T00:45:03;98277.87;;;12.35;89.95
41102;BME280;26845;50.190;19.178;2023-05-17T00:48:09;98274.39;;;12.34;90.05
41102;BME280;26845;50.190;19.178;2023-05-17T00:51:15;98270.36;;;12.35;90.18
41102;BME280;26845;50.190;19.178;2023-05-17T00:54:21;98264.73;;;12.36;90.17
41102;BME280;26845;50.190;19.178;2023-05-17T00:57:27;98256.11;;;12.40;90.24
41102;BME280;26845;50.190;19.178;2023-05-17T01:00:32;98255.17;;;12.35;90.06
41102;BME280;26845;50.190;19.178;2023-05-17T01:03:39;98249.23;;;12.32;90.23
41102;BME280;26845;50.190;19.178;2023-05-17T01:06:46;98249.89;;;12.31;90.29
41102;BME280;26845;50.190;19.178;2023-05-17T01:09:52;98253.16;;;12.29;90.21
41102;BME280;26845;50.190;19.178;2023-05-17T01:13:07;98253.07;;;12.26;90.35
41102;BME280;26845;50.190;19.178;2023-05-17T01:16:24;98256.42;;;12.24;90.44
41102;BME280;26845;50.190;19.178;2023-05-17T01:19:29;98255.61;;;12.24;90.43
41102;BME280;26845;50.190;19.178;2023-05-17T01:22:46;98262.19;;;12.24;90.39
41102;BME280;26845;50.190;19.178;2023-05-17T01:29:10;98276.77;;;12.25;90.63
41102;BME280;26845;50.190;19.178;2023-05-17T01:32:17;98276.70;;;12.24;90.52
41102;BME280;26845;50.190;19.178;2023-05-17T01:35:26;98277.59;;;12.24;90.70
41102;BME280;26845;50.190;19.178;2023-05-17T01:38:33;98269.31;;;12.29;90.94
41102;BME280;26845;50.190;19.178;2023-05-17T01:41:40;98268.33;;;12.32;90.72
41102;BME280;26845;50.190;19.178;2023-05-17T01:44:59;98270.92;;;12.27;90.69
41102;BME280;26845;50.190;19.178;2023-05-17T01:51:06;98260.77;;;12.22;90.94
41102;BME280;26845;50.190;19.178;2023-05-17T01:54:11;98264.98;;;12.21;91.00
41102;BME280;26845;50.190;19.178;2023-05-17T01:56:57;98278.94;;;12.16;90.87
41102;BME280;26845;50.190;19.178;2023-05-17T02:00:06;98284.42;;;12.07;91.05
41102;BME280;26845;50.190;19.178;2023-05-17T02:03:11;98293.57;;;12.05;91.23
41102;BME280;26845;50.190;19.178;2023-05-17T02:05:52;98291.45;;;12.07;91.25
41102;BME280;26845;50.190;19.178;2023-05-17T02:09:00;98289.70;;;12.08;91.33
41102;BME280;26845;50.190;19.178;2023-05-17T02:12:07;98283.78;;;12.13;91.24
41102;BME280;26845;50.190;19.178;2023-05-17T02:15:12;98281.44;;;12.14;91.34
41102;BME280;26845;50.190;19.178;2023-05-17T02:18:19;98286.17;;;12.16;91.36
41102;BME280;26845;50.190;19.178;2023-05-17T02:21:30;98282.29;;;12.16;91.37
41102;BME280;26845;50.190;19.178;2023-05-17T02:24:36;98289.98;;;12.19;91.52
41102;BME280;26845;50.190;19.178;2023-05-17T02:27:56;98279.56;;;12.17;91.51
41102;BME280;26845;50.190;19.178;2023-05-17T02:31:01;98287.45;;;12.18;91.55
41102;BME280;26845;50.190;19.178;2023-05-17T02:34:07;98296.14;;;12.18;91.59
41102;BME280;26845;50.190;19.178;2023-05-17T02:37:13;98292.30;;;12.18;91.52
41102;BME280;26845;50.190;19.178;2023-05-17T02:40:19;98291.50;;;12.17;91.63
41102;BME280;26845;50.190;19.178;2023-05-17T02:43:25;98292.41;;;12.16;91.63
41102;BME280;26845;50.190;19.178;2023-05-17T02:46:32;98304.23;;;12.13;91.59
41102;BME280;26845;50.190;19.178;2023-05-17T02:49:07;98308.86;;;12.16;91.85
41102;BME280;26845;50.190;19.178;2023-05-17T02:52:14;98308.10;;;12.17;91.81
41102;BME280;26845;50.190;19.178;2023-05-17T02:55:19;98305.05;;;12.18;91.86
41102;BME280;26845;50.190;19.178;2023-05-17T02:58:33;98295.06;;;12.21;91.97
41102;BME280;26845;50.190;19.178;2023-05-17T03:01:29;98300.04;;;12.22;91.85
41102;BME280;26845;50.190;19.178;2023-05-17T03:04:35;98307.50;;;12.19;91.82
41102;BME280;26845;50.190;19.178;2023-05-17T03:07:43;98305.88;;;12.17;91.95
41102;BME280;26845;50.190;19.178;2023-05-17T03:10:17;98313.77;;;12.17;92.12
41102;BME280;26845;50.190;19.178;2023-05-17T03:13:33;98318.38;;;12.14;92.26
41102;BME280;26845;50.190;19.178;2023-05-17T03:16:39;98322.67;;;12.20;92.39
41102;BME280;26845;50.190;19.178;2023-05-17T03:19:45;98317.88;;;12.23;92.30
41102;BME280;26845;50.190;19.178;2023-05-17T03:22:46;98312.54;;;12.26;92.33
41102;BME280;26845;50.190;19.178;2023-05-17T03:25:30;98304.74;;;12.31;92.59
41102;BME280;26845;50.190;19.178;2023-05-17T03:28:36;98298.69;;;12.27;92.40
41102;BME280;26845;50.190;19.178;2023-05-17T03:31:44;98299.06;;;12.24;92.56
41102;BME280;26845;50.190;19.178;2023-05-17T03:34:50;98301.27;;;12.19;92.71
41102;BME280;26845;50.190;19.178;2023-05-17T03:37:56;98313.85;;;12.19;92.74
41102;BME280;26845;50.190;19.178;2023-05-17T03:41:02;98318.73;;;12.24;92.83
41102;BME280;26845;50.190;19.178;2023-05-17T03:44:07;98320.02;;;12.26;92.98
41102;BME280;26845;50.190;19.178;2023-05-17T03:47:13;98320.95;;;12.22;92.70
41102;BME280;26845;50.190;19.178;2023-05-17T03:50:19;98320.23;;;12.17;92.64
41102;BME280;26845;50.190;19.178;2023-05-17T03:53:25;98329.14;;;12.17;92.80
41102;BME280;26845;50.190;19.178;2023-05-17T03:56:31;98331.05;;;12.17;93.01
41102;BME280;26845;50.190;19.178;2023-05-17T03:59:36;98336.02;;;12.16;92.95
41102;BME280;26845;50.190;19.178;2023-05-17T04:02:42;98336.35;;;12.18;93.10
41102;BME280;26845;50.190;19.178;2023-05-17T04:06:02;98340.96;;;12.14;93.01
41102;BME280;26845;50.190;19.178;2023-05-17T04:09:07;98339.27;;;12.09;93.04
41102;BME280;26845;50.190;19.178;2023-05-17T04:12:24;98353.63;;;12.08;93.11
41102;BME280;26845;50.190;19.178;2023-05-17T04:15:30;98366.52;;;12.06;93.11
41102;BME280;26845;50.190;19.178;2023-05-17T04:18:37;98363.23;;;12.07;93.24
41102;BME280;26845;50.190;19.178;2023-05-17T04:21:43;98357.40;;;12.05;93.20
41102;BME280;26845;50.190;19.178;2023-05-17T04:24:48;98357.14;;;12.05;93.28
41102;BME280;26845;50.190;19.178;2023-05-17T04:27:56;98352.81;;;12.08;93.48
41102;BME280;26845;50.190;19.178;2023-05-17T04:31:05;98353.48;;;12.10;93.49
41102;BME280;26845;50.190;19.178;2023-05-17T04:34:15;98351.01;;;12.09;93.39
41102;BME280;26845;50.190;19.178;2023-05-17T04:37:21;98357.98;;;12.04;93.41
41102;BME280;26845;50.190;19.178;2023-05-17T04:40:28;98364.23;;;11.97;93.32
41102;BME280;26845;50.190;19.178;2023-05-17T04:43:34;98370.39;;;11.92;93.29
41102;BME280;26845;50.190;19.178;2023-05-17T04:46:39;98376.15;;;11.88;93.41
41102;BME280;26845;50.190;19.178;2023-05-17T04:49:45;98385.23;;;11.87;93.34
41102;BME280;26845;50.190;19.178;2023-05-17T04:52:51;98386.56;;;11.88;93.52
41102;BME280;26845;50.190;19.178;2023-05-17T04:55:58;98388.49;;;11.83;93.41
41102;BME280;26845;50.190;19.178;2023-05-17T04:59:03;98391.05;;;11.84;93.59
41102;BME280;26845;50.190;19.178;2023-05-17T05:02:10;98389.79;;;11.87;93.53
41102;BME280;26845;50.190;19.178;2023-05-17T05:05:16;98390.84;;;11.86;93.57
41102;BME280;26845;50.190;19.178;2023-05-17T05:08:23;98391.09;;;11.83;93.57
41102;BME280;26845;50.190;19.178;2023-05-17T05:11:29;98394.48;;;11.80;93.43
41102;BME280;26845;50.190;19.178;2023-05-17T05:14:34;98394.85;;;11.76;93.60
41102;BME280;26845;50.190;19.178;2023-05-17T05:17:40;98387.10;;;11.73;93.59
41102;BME280;26845;50.190;19.178;2023-05-17T05:20:47;98391.83;;;11.76;93.71
41102;BME280;26845;50.190;19.178;2023-05-17T05:23:54;98392.75;;;11.77;93.64
41102;BME280;26845;50.190;19.178;2023-05-17T05:27:00;98396.45;;;11.74;93.71
41102;BME280;26845;50.190;19.178;2023-05-17T05:30:06;98416.00;;;11.77;93.80
41102;BME280;26845;50.190;19.178;2023-05-17T05:33:13;98420.63;;;11.76;93.69
41102;BME280;26845;50.190;19.178;2023-05-17T05:36:19;98426.16;;;11.74;93.77
41102;BME280;26845;50.190;19.178;2023-05-17T05:39:25;98428.77;;;11.71;93.73
41102;BME280;26845;50.190;19.178;2023-05-17T05:42:31;98431.63;;;11.68;93.77
41102;BME280;26845;50.190;19.178;2023-05-17T05:45:38;98435.17;;;11.66;93.76
41102;BME280;26845;50.190;19.178;2023-05-17T05:48:44;98439.48;;;11.61;93.80
41102;BME280;26845;50.190;19.178;2023-05-17T05:51:50;98440.63;;;11.58;93.83
41102;BME280;26845;50.190;19.178;2023-05-17T05:54:56;98446.77;;;11.56;93.77
41102;BME280;26845;50.190;19.178;2023-05-17T05:58:01;98454.55;;;11.56;93.96
41102;BME280;26845;50.190;19.178;2023-05-17T06:01:07;98454.69;;;11.54;93.99
41102;BME280;26845;50.190;19.178;2023-05-17T06:04:13;98460.96;;;11.54;94.01
41102;BME280;26845;50.190;19.178;2023-05-17T06:07:19;98458.89;;;11.52;93.96
41102;BME280;26845;50.190;19.178;2023-05-17T06:10:25;98462.04;;;11.51;94.13
41102;BME280;26845;50.190;19.178;2023-05-17T06:13:30;98468.02;;;11.53;94.17
41102;BME280;26845;50.190;19.178;2023-05-17T06:16:36;98466.01;;;11.50;94.05
41102;BME280;26845;50.190;19.178;2023-05-17T06:19:42;98470.41;;;11.50;94.12
41102;BME280;26845;50.190;19.178;2023-05-17T06:22:51;98471.63;;;11.48;94.14
41102;BME280;26845;50.190;19.178;2023-05-17T06:25:57;98480.80;;;11.48;94.17
41102;BME280;26845;50.190;19.178;2023-05-17T06:29:03;98488.80;;;11.44;94.22
41102;BME280;26845;50.190;19.178;2023-05-17T06:32:09;98490.46;;;11.42;94.30
41102;BME280;26845;50.190;19.178;2023-05-17T06:35:14;98491.45;;;11.43;94.39
41102;BME280;26845;50.190;19.178;2023-05-17T06:38:20;98498.16;;;11.44;94.24
41102;BME280;26845;50.190;19.178;2023-05-17T06:41:26;98501.36;;;11.44;94.30
41102;BME280;26845;50.190;19.178;2023-05-17T06:44:32;98503.16;;;11.45;94.39
41102;BME280;26845;50.190;19.178;2023-05-17T06:47:38;98504.02;;;11.44;94.24
41102;BME280;26845;50.190;19.178;2023-05-17T06:50:44;98503.26;;;11.42;94.20
41102;BME280;26845;50.190;19.178;2023-05-17T06:53:49;98503.23;;;11.42;94.37
41102;BME280;26845;50.190;19.178;2023-05-17T06:57:02;98506.95;;;11.41;94.50
41102;BME280;26845;50.190;19.178;2023-05-17T07:00:08;98500.02;;;11.43;94.65
41102;BME280;26845;50.190;19.178;2023-05-17T07:03:13;98512.83;;;11.43;94.53
41102;BME280;26845;50.190;19.178;2023-05-17T07:06:19;98517.23;;;11.42;94.72
41102;BME280;26845;50.190;19.178;2023-05-17T07:09:25;98526.88;;;11.42;94.81
41102;BME280;26845;50.190;19.178;2023-05-17T07:12:31;98532.21;;;11.41;94.62
41102;BME280;26845;50.190;19.178;2023-05-17T07:15:37;98541.68;;;11.41;94.73
41102;BME280;26845;50.190;19.178;2023-05-17T07:18:43;98542.46;;;11.39;94.71
41102;BME280;26845;50.190;19.178;2023-05-17T07:21:48;98546.09;;;11.38;94.74
41102;BME280;26845;50.190;19.178;2023-05-17T07:24:54;98546.81;;;11.33;94.58
41102;BME280;26845;50.190;19.178;2023-05-17T07:28:00;98541.12;;;11.27;94.51
41102;BME280;26845;50.190;19.178;2023-05-17T07:31:06;98550.48;;;11.22;94.65
41102;BME280;26845;50.190;19.178;2023-05-17T07:34:12;98556.05;;;11.18;94.75
41102;BME280;26845;50.190;19.178;2023-05-17T07:37:18;98555.16;;;11.21;94.85
41102;BME280;26845;50.190;19.178;2023-05-17T07:40:23;98566.15;;;11.18;94.77
41102;BME280;26845;50.190;19.178;2023-05-17T07:43:29;98573.38;;;11.18;94.75
41102;BME280;26845;50.190;19.178;2023-05-17T07:46:35;98578.33;;;11.08;94.39
41102;BME280;26845;50.190;19.178;2023-05-17T07:49:41;98589.84;;;10.99;94.31
41102;BME280;26845;50.190;19.178;2023-05-17T07:52:47;98592.79;;;10.94;94.08
41102;BME280;26845;50.190;19.178;2023-05-17T07:55:52;98601.34;;;10.85;94.04
41102;BME280;26845;50.190;19.178;2023-05-17T07:58:58;98611.70;;;10.78;94.11
41102;BME280;26845;50.190;19.178;2023-05-17T08:02:05;98620.20;;;10.71;93.91
41102;BME280;26845;50.190;19.178;2023-05-17T08:05:11;98622.64;;;10.63;94.01
41102;BME280;26845;50.190;19.178;2023-05-17T08:08:16;98629.07;;;10.60;94.05
41102;BME280;26845;50.190;19.178;2023-05-17T08:11:22;98624.65;;;10.61;94.13
41102;BME280;26845;50.190;19.178;2023-05-17T08:14:28;98632.05;;;10.61;94.23
41102;BME280;26845;50.190;19.178;2023-05-17T08:17:34;98627.56;;;10.58;94.20
41102;BME280;26845;50.190;19.178;2023-05-17T08:20:40;98625.95;;;10.58;94.36
41102;BME280;26845;50.190;19.178;2023-05-17T08:23:45;98630.86;;;10.60;94.29
41102;BME280;26845;50.190;19.178;2023-05-17T08:26:51;98633.77;;;10.62;94.24
41102;BME280;26845;50.190;19.178;2023-05-17T08:29:57;98635.51;;;10.60;94.27
41102;BME280;26845;50.190;19.178;2023-05-17T08:33:03;98637.77;;;10.59;94.29
41102;BME280;26845;50.190;19.178;2023-05-17T08:36:09;98638.08;;;10.56;94.27
41102;BME280;26845;50.190;19.178;2023-05-17T08:39:15;98645.82;;;10.53;94.57
41102;BME280;26845;50.190;19.178;2023-05-17T08:42:21;98649.85;;;10.52;94.40
41102;BME280;26845;50.190;19.178;2023-05-17T08:45:26;98652.90;;;10.51;94.50
41102;BME280;26845;50.190;19.178;2023-05-17T08:48:35;98660.38;;;10.51;94.58
41102;BME280;26845;50.190;19.178;2023-05-17T08:51:41;98661.77;;;10.51;94.81
41102;BME280;26845;50.190;19.178;2023-05-17T08:54:47;98668.23;;;10.54;94.83
41102;BME280;26845;50.190;19.178;2023-05-17T08:57:53;98664.19;;;10.54;94.60
41102;BME280;26845;50.190;19.178;2023-05-17T09:00:59;98663.15;;;10.57;94.77
41102;BME280;26845;50.190;19.178;2023-05-17T09:04:04;98664.36;;;10.62;94.81
41102;BME280;26845;50.190;19.178;2023-05-17T09:07:10;98664.96;;;10.67;94.95
41102;BME280;26845;50.190;19.178;2023-05-17T09:10:16;98662.86;;;10.71;95.06
41102;BME280;26845;50.190;19.178;2023-05-17T09:13:22;98664.00;;;10.73;94.99
41102;BME280;26845;50.190;19.178;2023-05-17T09:16:28;98660.35;;;10.74;94.97
41102;BME280;26845;50.190;19.178;2023-05-17T09:19:34;98661.88;;;10.80;95.09
41102;BME280;26845;50.190;19.178;2023-05-17T09:22:39;98665.22;;;10.83;94.99
41102;BME280;26845;50.190;19.178;2023-05-17T09:25:46;98666.47;;;10.84;94.99
41102;BME280;26845;50.190;19.178;2023-05-17T09:28:51;98666.80;;;10.88;95.22
41102;BME280;26845;50.190;19.178;2023-05-17T09:32:10;98668.50;;;10.89;95.09
41102;BME280;26845;50.190;19.178;2023-05-17T09:35:03;98682.22;;;10.88;94.85
41102;BME280;26845;50.190;19.178;2023-05-17T09:38:09;98684.02;;;10.87;94.80
41102;BME280;26845;50.190;19.178;2023-05-17T09:41:14;98694.51;;;10.79;94.58
41102;BME280;26845;50.190;19.178;2023-05-17T09:44:20;98696.89;;;10.76;94.75
41102;BME280;26845;50.190;19.178;2023-05-17T09:47:27;98706.05;;;10.77;94.73
41102;BME280;26845;50.190;19.178;2023-05-17T09:50:32;98705.94;;;10.74;94.53
41102;BME280;26845;50.190;19.178;2023-05-17T09:53:38;98710.38;;;10.74;94.63
41102;BME280;26845;50.190;19.178;2023-05-17T09:56:44;98707.46;;;10.73;94.56
41102;BME280;26845;50.190;19.178;2023-05-17T09:59:49;98706.88;;;10.71;94.51
41102;BME280;26845;50.190;19.178;2023-05-17T10:02:55;98714.34;;;10.68;94.48
41102;BME280;26845;50.190;19.178;2023-05-17T10:06:02;98716.38;;;10.67;94.54
41102;BME280;26845;50.190;19.178;2023-05-17T10:09:08;98714.70;;;10.63;94.40
41102;BME280;26845;50.190;19.178;2023-05-17T10:12:15;98715.27;;;10.61;94.69
41102;BME280;26845;50.190;19.178;2023-05-17T10:15:18;98718.35;;;10.57;94.59
41102;BME280;26845;50.190;19.178;2023-05-17T10:18:24;98715.36;;;10.55;94.60
41102;BME280;26845;50.190;19.178;2023-05-17T10:21:30;98721.22;;;10.56;94.57
41102;BME280;26845;50.190;19.178;2023-05-17T10:24:36;98723.59;;;10.59;94.83
41102;BME280;26845;50.190;19.178;2023-05-17T10:27:42;98724.56;;;10.60;94.83
41102;BME280;26845;50.190;19.178;2023-05-17T10:30:47;98725.23;;;10.58;94.82
41102;BME280;26845;50.190;19.178;2023-05-17T10:33:54;98727.88;;;10.61;94.97
41102;BME280;26845;50.190;19.178;2023-05-17T10:36:59;98730.65;;;10.65;95.03
41102;BME280;26845;50.190;19.178;2023-05-17T10:40:05;98732.33;;;10.65;95.00
41102;BME280;26845;50.190;19.178;2023-05-17T10:43:11;98741.52;;;10.62;94.89
41102;BME280;26845;50.190;19.178;2023-05-17T10:46:18;98746.27;;;10.62;94.70
41102;BME280;26845;50.190;19.178;2023-05-17T10:49:23;98752.64;;;10.57;94.61
41102;BME280;26845;50.190;19.178;2023-05-17T10:52:28;98757.73;;;10.54;94.64
41102;BME280;26845;50.190;19.178;2023-05-17T10:55:39;98764.91;;;10.49;94.50
41102;BME280;26845;50.190;19.178;2023-05-17T10:58:43;98768.48;;;10.45;94.58
41102;BME280;26845;50.190;19.178;2023-05-17T11:01:59;98772.17;;;10.44;94.62
41102;BME280;26845;50.190;19.178;2023-05-17T11:05:04;98779.52;;;10.41;94.58
41102;BME280;26845;50.190;19.178;2023-05-17T11:08:16;98785.42;;;10.36;94.40
41102;BME280;26845;50.190;19.178;2023-05-17T11:11:19;98784.70;;;10.28;94.13
41102;BME280;26845;50.190;19.178;2023-05-17T11:14:25;98789.29;;;10.24;94.28
41102;BME280;26845;50.190;19.178;2023-05-17T11:17:34;98782.00;;;10.28;94.49
41102;BME280;26845;50.190;19.178;2023-05-17T11:20:39;98783.48;;;10.26;94.37
41102;BME280;26845;50.190;19.178;2023-05-17T11:23:46;98786.96;;;10.22;94.30
41102;BME280;26845;50.190;19.178;2023-05-17T11:26:51;98788.23;;;10.24;94.52
41102;BME280;26845;50.190;19.178;2023-05-17T11:29:57;98786.20;;;10.24;94.47
41102;BME280;26845;50.190;19.178;2023-05-17T11:33:04;98789.38;;;10.23;94.35
41102;BME280;26845;50.190;19.178;2023-05-17T11:36:13;98791.14;;;10.22;94.20
41102;BME280;26845;50.190;19.178;2023-05-17T11:39:19;98791.85;;;10.18;94.10
41102;BME280;26845;50.190;19.178;2023-05-17T11:42:23;98794.06;;;10.18;94.02
41102;BME280;26845;50.190;19.178;2023-05-17T11:45:37;98794.23;;;10.16;94.17
41102;BME280;26845;50.190;19.178;2023-05-17T11:48:35;98792.44;;;10.16;94.20
41102;BME280;26845;50.190;19.178;2023-05-17T11:51:41;98792.11;;;10.19;94.34
41102;BME280;26845;50.190;19.178;2023-05-17T11:54:47;98791.21;;;10.23;94.46
41102;BME280;26845;50.190;19.178;2023-05-17T11:57:53;98793.05;;;10.25;94.40
41102;BME280;26845;50.190;19.178;2023-05-17T12:00:58;98792.30;;;10.28;94.61
41102;BME280;26845;50.190;19.178;2023-05-17T12:04:04;98792.81;;;10.31;94.59
41102;BME280;26845;50.190;19.178;2023-05-17T12:07:10;98801.58;;;10.39;94.78
41102;BME280;26845;50.190;19.178;2023-05-17T12:10:16;98806.58;;;10.46;94.87
41102;BME280;26845;50.190;19.178;2023-05-17T12:13:22;98808.83;;;10.51;94.79
41102;BME280;26845;50.190;19.178;2023-05-17T12:16:27;98815.98;;;10.49;94.47
41102;BME280;26845;50.190;19.178;2023-05-17T12:19:33;98823.04;;;10.48;94.40
41102;BME280;26845;50.190;19.178;2023-05-17T12:22:55;98830.41;;;10.50;94.49
41102;BME280;26845;50.190;19.178;2023-05-17T12:26:04;98834.96;;;10.48;94.26
41102;BME280;26845;50.190;19.178;2023-05-17T12:29:06;98839.71;;;10.45;94.18
41102;BME280;26845;50.190;19.178;2023-05-17T12:32:12;98836.15;;;10.41;94.20
41102;BME280;26845;50.190;19.178;2023-05-17T12:35:18;98836.70;;;10.38;94.31
41102;BME280;26845;50.190;19.178;2023-05-17T12:38:24;98831.64;;;10.36;94.17
41102;BME280;26845;50.190;19.178;2023-05-17T12:41:30;98837.09;;;10.32;94.17
41102;BME280;26845;50.190;19.178;2023-05-17T12:44:36;98842.83;;;10.25;93.95
41102;BME280;26845;50.190;19.178;2023-05-17T12:47:41;98842.48;;;10.20;93.94
41102;BME280;26845;50.190;19.178;2023-05-17T12:50:47;98841.23;;;10.15;93.84
41102;BME280;26845;50.190;19.178;2023-05-17T12:53:55;98849.16;;;10.10;93.91
41102;BME280;26845;50.190;19.178;2023-05-17T12:57:11;98853.79;;;10.05;93.99
41102;BME280;26845;50.190;19.178;2023-05-17T13:00:16;98855.84;;;10.00;94.00
41102;BME280;26845;50.190;19.178;2023-05-17T13:03:22;98856.10;;;9.98;93.99
41102;BME280;26845;50.190;19.178;2023-05-17T13:06:28;98856.21;;;9.99;94.35
41102;BME280;26845;50.190;19.178;2023-05-17T13:09:34;98863.40;;;10.00;94.13
41102;BME280;26845;50.190;19.178;2023-05-17T13:12:39;98868.70;;;10.02;94.15
41102;BME280;26845;50.190;19.178;2023-05-17T13:15:45;98874.05;;;9.97;94.01
41102;BME280;26845;50.190;19.178;2023-05-17T13:18:51;98876.77;;;9.87;93.78
41102;BME280;26845;50.190;19.178;2023-05-17T13:21:57;98876.21;;;9.82;93.69
41102;BME280;26845;50.190;19.178;2023-05-17T13:25:03;98878.03;;;9.76;93.46
41102;BME280;26845;50.190;19.178;2023-05-17T13:28:08;98885.19;;;9.71;93.37
41102;BME280;26845;50.190;19.178;2023-05-17T13:31:14;98893.27;;;9.71;93.59
41102;BME280;26845;50.190;19.178;2023-05-17T13:34:20;98902.49;;;9.64;93.40
41102;BME280;26845;50.190;19.178;2023-05-17T13:37:26;98907.44;;;9.65;93.63
41102;BME280;26845;50.190;19.178;2023-05-17T13:40:32;98910.78;;;9.64;93.59
41102;BME280;26845;50.190;19.178;2023-05-17T13:43:41;98911.27;;;9.65;93.65
41102;BME280;26845;50.190;19.178;2023-05-17T13:46:46;98914.31;;;9.62;93.45
41102;BME280;26845;50.190;19.178;2023-05-17T13:49:52;98919.75;;;9.62;93.61
41102;BME280;26845;50.190;19.178;2023-05-17T13:52:58;98918.05;;;9.62;93.64
41102;BME280;26845;50.190;19.178;2023-05-17T13:56:04;98917.95;;;9.61;93.79
41102;BME280;26845;50.190;19.178;2023-05-17T13:59:10;98918.35;;;9.60;93.77
41102;BME280;26845;50.190;19.178;2023-05-17T14:02:16;98920.21;;;9.58;93.73
41102;BME280;26845;50.190;19.178;2023-05-17T14:05:22;98915.33;;;9.58;93.86
41102;BME280;26845;50.190;19.178;2023-05-17T14:08:33;98918.36;;;9.59;93.93
41102;BME280;26845;50.190;19.178;2023-05-17T14:11:39;98927.17;;;9.60;94.04
41102;BME280;26845;50.190;19.178;2023-05-17T14:14:45;98928.63;;;9.60;94.03
41102;BME280;26845;50.190;19.178;2023-05-17T14:17:53;98934.48;;;9.46;93.95
41102;BME280;26845;50.190;19.178;2023-05-17T14:20:59;98937.81;;;9.43;94.23
41102;BME280;26845;50.190;19.178;2023-05-17T14:24:05;98943.75;;;9.46;94.52
41102;BME280;26845;50.190;19.178;2023-05-17T14:27:11;98936.98;;;9.52;94.41
41102;BME280;26845;50.190;19.178;2023-05-17T14:30:17;98941.05;;;9.55;94.37
41102;BME280;26845;50.190;19.178;2023-05-17T14:33:23;98946.90;;;9.53;94.43
41102;BME280;26845;50.190;19.178;2023-05-17T14:36:28;98949.59;;;9.52;94.34
41102;BME280;26845;50.190;19.178;2023-05-17T14:39:35;98953.20;;;9.55;94.50
41102;BME280;26845;50.190;19.178;2023-05-17T14:42:41;98955.10;;;9.54;94.43
41102;BME280;26845;50.190;19.178;2023-05-17T14:45:47;98954.91;;;9.52;94.71
41102;BME280;26845;50.190;19.178;2023-05-17T14:48:53;98953.72;;;9.54;94.52
41102;BME280;26845;50.190;19.178;2023-05-17T14:51:58;98965.70;;;9.59;94.75
41102;BME280;26845;50.190;19.178;2023-05-17T14:55:04;98956.59;;;9.63;94.78
41102;BME280;26845;50.190;19.178;2023-05-17T14:58:10;98963.39;;;9.67;94.74
41102;BME280;26845;50.190;19.178;2023-05-17T15:01:16;98959.20;;;9.72;94.81
41102;BME280;26845;50.190;19.178;2023-05-17T15:04:22;98961.45;;;9.73;94.79
41102;BME280;26845;50.190;19.178;2023-05-17T15:07:28;98969.98;;;9.79;94.87
41102;BME280;26845;50.190;19.178;2023-05-17T15:10:33;98976.55;;;9.86;94.96
41102;BME280;26845;50.190;19.178;2023-05-17T15:13:39;98980.45;;;9.92;94.97
41102;BME280;26845;50.190;19.178;2023-05-17T15:16:45;98984.02;;;9.91;94.72
41102;BME280;26845;50.190;19.178;2023-05-17T15:19:52;98985.77;;;9.92;94.75
41102;BME280;26845;50.190;19.178;2023-05-17T15:22:33;98986.84;;;9.97;95.00
41102;BME280;26845;50.190;19.178;2023-05-17T15:25:42;98988.96;;;9.94;94.72
41102;BME280;26845;50.190;19.178;2023-05-17T15:28:49;98995.70;;;9.92;94.83
41102;BME280;26845;50.190;19.178;2023-05-17T15:31:28;98998.45;;;9.92;94.87
41102;BME280;26845;50.190;19.178;2023-05-17T15:34:02;98999.86;;;9.93;94.94
41102;BME280;26845;50.190;19.178;2023-05-17T15:37:08;98999.39;;;9.91;94.93
41102;BME280;26845;50.190;19.178;2023-05-17T15:40:14;99004.98;;;9.98;95.51
41102;BME280;26845;50.190;19.178;2023-05-17T15:43:19;99007.48;;;10.05;95.08
41102;BME280;26845;50.190;19.178;2023-05-17T15:45:53;99006.98;;;9.98;94.74
41102;BME280;26845;50.190;19.178;2023-05-17T15:48:59;99004.86;;;9.96;94.90
41102;BME280;26845;50.190;19.178;2023-05-17T15:52:06;99006.38;;;9.95;94.95
41102;BME280;26845;50.190;19.178;2023-05-17T15:55:00;99004.55;;;9.89;94.88
41102;BME280;26845;50.190;19.178;2023-05-17T15:58:05;99003.08;;;9.91;95.22
41102;BME280;26845;50.190;19.178;2023-05-17T16:01:14;99002.42;;;9.90;94.96
41102;BME280;26845;50.190;19.178;2023-05-17T16:04:20;99001.36;;;9.91;95.14
41102;BME280;26845;50.190;19.178;2023-05-17T16:07:14;99004.52;;;9.94;94.98
41102;BME280;26845;50.190;19.178;2023-05-17T16:10:20;99010.36;;;9.93;94.99
41102;BME280;26845;50.190;19.178;2023-05-17T16:13:26;99015.52;;;9.96;95.13
41102;BME280;26845;50.190;19.178;2023-05-17T17:08:23;99052.56;;;10.31;94.67
41102;BME280;26845;50.190;19.178;2023-05-17T17:11:29;99049.14;;;10.33;94.94